Time;durP1;ratioP1;P1;durP2;ratioP2;P2;SDS_P1;SDS_P2;PMS_P1;PMS_P2;Temp;Humidity;BMP_temperature;BMP_pressure;BME280_temperature;BME280_humidity;BME280_pressure;Samples;Min_cycle;Max_cycle;Signal;HPM_P1;HPM_P2
2024/02/10 00:02:39;;;;;;;21.67;10.88;;;;;;;;;;6261740;28;24474;-81
2024/02/10 00:05:45;;;;;;;21.03;11.70;;;;;;;;;;6267979;28;24462;-81
2024/02/10 00:08:48;;;;;;;17.57;10.77;;;;;;;;;;6271417;28;24470;-81
2024/02/10 00:11:49;;;;;;;17.33;10.68;;;;;;;;;;6271416;28;24422;-81
2024/02/10 00:14:51;;;;;;;17.02;10.60;;;;;;;;;;6269973;28;24619;-80
2024/02/10 00:17:52;;;;;;;17.87;10.27;;;;;;;;;;6270828;28;24428;-81
2024/02/10 00:20:54;;;;;;;16.58;9.98;;;;;;;;;;6269981;28;24833;-80
2024/02/10 00:23:58;;;;;;;19.20;11.27;;;;;;;;;;6271469;28;24598;-81
2024/02/10 00:27:01;;;;;;;47.90;25.88;;;;;;;;;;6270267;28;25106;-83
2024/02/10 00:30:05;;;;;;;73.50;37.45;;;;;;;;;;6268980;28;24430;-82
2024/02/10 00:33:07;;;;;;;73.07;37.20;;;;;;;;;;6273180;28;24433;-82
2024/02/10 00:36:09;;;;;;;77.43;39.83;;;;;;;;;;6270741;28;24420;-81
2024/02/10 00:39:12;;;;;;;47.10;25.50;;;;;;;;;;6273698;28;24427;-84
2024/02/10 00:42:14;;;;;;;74.07;37.92;;;;;;;;;;6271755;28;24477;-82
2024/02/10 00:45:15;;;;;;;32.13;18.80;;;;;;;;;;6272402;28;24443;-81
2024/02/10 00:48:17;;;;;;;17.52;10.05;;;;;;;;;;6271943;28;24427;-81
2024/02/10 00:51:18;;;;;;;14.15;8.77;;;;;;;;;;6271774;28;24424;-82
2024/02/10 00:54:29;;;;;;;13.82;8.00;;;;;;;;;;6268010;28;24834;-81
2024/02/10 00:57:31;;;;;;;10.63;7.07;;;;;;;;;;6268908;28;24423;-80
2024/02/10 01:00:34;;;;;;;11.05;6.60;;;;;;;;;;6272000;28;24503;-83
2024/02/10 01:03:43;;;;;;;8.38;6.32;;;;;;;;;;6270273;28;24484;-80
2024/02/10 01:06:47;;;;;;;8.90;6.00;;;;;;;;;;6269272;28;24436;-81
2024/02/10 01:09:49;;;;;;;10.02;5.78;;;;;;;;;;6272695;28;24427;-81
2024/02/10 01:12:51;;;;;;;8.70;5.43;;;;;;;;;;6266973;28;24442;-80
2024/02/10 01:15:54;;;;;;;8.80;5.53;;;;;;;;;;6266594;28;24461;-81
2024/02/10 01:18:56;;;;;;;7.55;5.15;;;;;;;;;;6268610;28;24442;-80
2024/02/10 01:21:58;;;;;;;8.63;4.93;;;;;;;;;;6266954;28;24458;-80
2024/02/10 01:25:01;;;;;;;7.37;4.37;;;;;;;;;;6268824;28;24489;-81
2024/02/10 01:28:02;;;;;;;6.90;4.35;;;;;;;;;;6267068;28;24432;-82
2024/02/10 01:31:05;;;;;;;7.93;4.30;;;;;;;;;;6268764;28;24422;-81
2024/02/10 01:34:08;;;;;;;7.50;3.90;;;;;;;;;;6271113;28;24429;-81
2024/02/10 01:37:10;;;;;;;7.23;3.90;;;;;;;;;;6267181;28;24579;-80
2024/02/10 01:40:13;;;;;;;7.45;3.92;;;;;;;;;;6266549;28;24428;-82
2024/02/10 01:43:14;;;;;;;6.88;3.72;;;;;;;;;;6269072;28;24869;-81
2024/02/10 01:46:21;;;;;;;6.95;3.95;;;;;;;;;;6267205;28;24424;-82
2024/02/10 01:49:22;;;;;;;6.32;3.72;;;;;;;;;;6264656;28;24666;-82
2024/02/10 01:52:24;;;;;;;7.13;3.67;;;;;;;;;;6268350;28;24434;-80
2024/02/10 01:55:26;;;;;;;5.35;3.20;;;;;;;;;;6266228;28;24432;-82
2024/02/10 01:58:28;;;;;;;5.37;3.30;;;;;;;;;;6266377;28;24768;-80
2024/02/10 02:01:30;;;;;;;5.72;3.90;;;;;;;;;;6267645;28;25095;-82
2024/02/10 02:04:31;;;;;;;5.68;3.92;;;;;;;;;;6264552;28;24439;-80
2024/02/10 02:07:33;;;;;;;6.13;3.45;;;;;;;;;;6268513;28;24431;-82
2024/02/10 02:10:35;;;;;;;4.93;3.30;;;;;;;;;;6264906;28;24431;-81
2024/02/10 02:13:38;;;;;;;6.15;3.33;;;;;;;;;;6267999;28;24430;-81
2024/02/10 02:16:39;;;;;;;4.70;3.10;;;;;;;;;;6265802;28;24989;-81
2024/02/10 02:19:42;;;;;;;4.25;3.00;;;;;;;;;;6267973;28;24412;-81
2024/02/10 02:22:47;;;;;;;5.32;3.47;;;;;;;;;;6267122;28;24809;-80
2024/02/10 02:25:49;;;;;;;5.15;3.58;;;;;;;;;;6267224;28;24419;-79
2024/02/10 02:28:50;;;;;;;5.68;3.50;;;;;;;;;;6267264;28;24659;-81
2024/02/10 02:31:53;;;;;;;5.13;3.22;;;;;;;;;;6267315;28;24419;-82
2024/02/10 02:34:57;;;;;;;5.07;3.30;;;;;;;;;;6262899;28;24438;-80
2024/02/10 02:38:00;;;;;;;4.70;3.08;;;;;;;;;;6266203;28;24422;-81
2024/02/10 02:41:01;;;;;;;4.68;3.35;;;;;;;;;;6264637;28;24591;-79
2024/02/10 02:44:05;;;;;;;3.67;2.83;;;;;;;;;;6263106;28;24439;-80
2024/02/10 02:47:07;;;;;;;4.68;2.80;;;;;;;;;;6265989;28;24806;-79
2024/02/10 02:50:09;;;;;;;4.07;2.70;;;;;;;;;;6267835;28;24626;-81
2024/02/10 02:53:12;;;;;;;3.63;2.60;;;;;;;;;;6270851;28;24473;-81
2024/02/10 02:56:15;;;;;;;3.50;2.60;;;;;;;;;;6265753;28;24545;-80
2024/02/10 02:59:16;;;;;;;5.32;2.47;;;;;;;;;;6268146;28;24431;-80
2024/02/10 03:02:18;;;;;;;5.15;2.50;;;;;;;;;;6266611;28;24419;-80
2024/02/10 03:05:19;;;;;;;3.03;2.22;;;;;;;;;;6266369;28;24458;-81
2024/02/10 03:08:22;;;;;;;3.55;2.35;;;;;;;;;;6265685;28;24643;-81
2024/02/10 03:11:23;;;;;;;2.65;1.90;;;;;;;;;;6262710;28;24430;-81
2024/02/10 03:14:25;;;;;;;3.03;1.88;;;;;;;;;;6263639;28;24422;-81
2024/02/10 03:17:30;;;;;;;3.08;1.85;;;;;;;;;;6265169;28;24412;-81
2024/02/10 03:20:32;;;;;;;3.55;1.90;;;;;;;;;;6266221;28;24483;-80
2024/02/10 03:23:35;;;;;;;3.40;2.00;;;;;;;;;;6268119;28;24430;-83
2024/02/10 03:26:37;;;;;;;2.72;1.77;;;;;;;;;;6265844;28;24783;-83
2024/02/10 03:29:39;;;;;;;3.20;1.90;;;;;;;;;;6265486;28;24423;-82
2024/02/10 03:32:40;;;;;;;2.47;1.90;;;;;;;;;;6262432;28;24465;-80
2024/02/10 03:35:42;;;;;;;3.70;2.10;;;;;;;;;;6267805;28;24422;-82
2024/02/10 03:38:45;;;;;;;2.40;1.80;;;;;;;;;;6263882;28;24435;-81
2024/02/10 03:41:46;;;;;;;3.00;2.10;;;;;;;;;;6263836;28;24815;-83
2024/02/10 03:44:47;;;;;;;3.10;2.05;;;;;;;;;;6266879;28;24439;-82
2024/02/10 03:47:50;;;;;;;3.00;2.00;;;;;;;;;;6263797;28;24553;-83
2024/02/10 03:50:51;;;;;;;3.75;2.08;;;;;;;;;;6265145;28;24846;-84
2024/02/10 03:53:55;;;;;;;3.20;2.10;;;;;;;;;;6262321;28;24559;-83
2024/02/10 03:56:57;;;;;;;2.83;2.10;;;;;;;;;;6268054;28;24466;-83
2024/02/10 03:59:58;;;;;;;3.25;2.30;;;;;;;;;;6265046;28;24446;-84
2024/02/10 04:03:00;;;;;;;2.53;2.10;;;;;;;;;;6266430;28;24419;-82
2024/02/10 04:06:02;;;;;;;2.67;2.25;;;;;;;;;;6268064;28;24419;-82
2024/02/10 04:09:07;;;;;;;3.50;2.28;;;;;;;;;;6264731;28;24477;-81
2024/02/10 04:12:09;;;;;;;2.93;2.10;;;;;;;;;;6262944;28;24878;-82
2024/02/10 04:15:12;;;;;;;2.60;2.10;;;;;;;;;;6264025;28;24854;-82
2024/02/10 04:18:13;;;;;;;3.40;2.30;;;;;;;;;;6265984;28;24431;-83
2024/02/10 04:21:15;;;;;;;4.35;2.25;;;;;;;;;;6264836;28;24430;-83
2024/02/10 04:24:19;;;;;;;3.40;2.30;;;;;;;;;;6264475;28;24431;-84
2024/02/10 04:27:20;;;;;;;3.28;2.38;;;;;;;;;;6262818;28;24470;-83
2024/02/10 04:30:22;;;;;;;3.20;2.30;;;;;;;;;;6267722;28;24431;-82
2024/02/10 04:33:23;;;;;;;2.90;2.20;;;;;;;;;;6264247;28;24616;-84
2024/02/10 04:36:25;;;;;;;3.63;2.70;;;;;;;;;;6264214;28;24439;-82
2024/02/10 04:39:28;;;;;;;3.50;2.70;;;;;;;;;;6265055;28;24814;-83
2024/02/10 04:42:29;;;;;;;3.50;2.63;;;;;;;;;;6265875;28;24485;-84
2024/02/10 04:45:32;;;;;;;3.37;2.70;;;;;;;;;;6266267;28;24468;-80
2024/02/10 04:48:33;;;;;;;3.55;2.60;;;;;;;;;;6264983;28;24447;-84
2024/02/10 04:51:35;;;;;;;2.92;2.40;;;;;;;;;;6268311;28;24423;-83
2024/02/10 04:54:37;;;;;;;4.05;2.40;;;;;;;;;;6270286;28;24447;-82
2024/02/10 04:57:39;;;;;;;3.15;2.38;;;;;;;;;;6267840;28;24503;-84
2024/02/10 05:00:40;;;;;;;2.75;2.10;;;;;;;;;;6268063;28;24811;-82
2024/02/10 05:03:42;;;;;;;3.05;2.10;;;;;;;;;;6267900;28;24866;-85
2024/02/10 05:06:43;;;;;;;2.90;2.20;;;;;;;;;;6267493;28;24412;-84
2024/02/10 05:09:46;;;;;;;2.60;1.90;;;;;;;;;;6267020;28;24434;-83
2024/02/10 05:12:48;;;;;;;3.05;1.77;;;;;;;;;;6269502;28;24438;-83
2024/02/10 05:15:49;;;;;;;2.67;1.80;;;;;;;;;;6272861;28;24408;-83
2024/02/10 05:18:54;;;;;;;2.28;1.67;;;;;;;;;;6264503;28;24430;-83
2024/02/10 05:21:56;;;;;;;2.40;1.60;;;;;;;;;;6272259;28;24474;-83
2024/02/10 05:25:00;;;;;;;2.60;1.90;;;;;;;;;;6268613;28;24915;-81
2024/02/10 05:28:02;;;;;;;2.80;1.83;;;;;;;;;;6266535;28;24427;-82
2024/02/10 05:31:04;;;;;;;3.17;2.00;;;;;;;;;;6268289;28;24427;-83
2024/02/10 05:34:06;;;;;;;2.70;1.80;;;;;;;;;;6269995;28;24502;-82
2024/02/10 05:37:07;;;;;;;3.38;1.98;;;;;;;;;;6271210;28;24435;-82
2024/02/10 05:40:11;;;;;;;2.75;1.75;;;;;;;;;;6266397;28;24507;-81
2024/02/10 05:43:14;;;;;;;2.88;1.90;;;;;;;;;;6269319;28;24521;-82
2024/02/10 05:46:15;;;;;;;2.75;2.28;;;;;;;;;;6267689;28;24835;-82
2024/02/10 05:49:21;;;;;;;3.10;2.40;;;;;;;;;;6266920;28;24565;-82
2024/02/10 05:52:22;;;;;;;3.67;2.40;;;;;;;;;;6266804;28;24502;-82
2024/02/10 05:55:26;;;;;;;3.80;2.50;;;;;;;;;;6265996;28;24619;-80
2024/02/10 05:58:29;;;;;;;4.65;2.70;;;;;;;;;;6270547;28;24434;-82
2024/02/10 06:01:31;;;;;;;4.43;2.40;;;;;;;;;;6268321;28;24462;-82
2024/02/10 06:04:33;;;;;;;3.80;2.53;;;;;;;;;;6267000;28;24415;-83
2024/02/10 06:07:35;;;;;;;3.30;2.20;;;;;;;;;;6268260;28;24801;-82
2024/02/10 06:10:38;;;;;;;2.43;2.10;;;;;;;;;;6270146;28;24408;-82
2024/02/10 06:13:40;;;;;;;2.53;1.80;;;;;;;;;;6267202;28;24427;-81
2024/02/10 06:16:41;;;;;;;3.42;2.10;;;;;;;;;;6267033;28;24418;-83
2024/02/10 06:19:43;;;;;;;3.13;2.00;;;;;;;;;;6268091;28;24437;-82
2024/02/10 06:22:46;;;;;;;2.55;1.80;;;;;;;;;;6265282;28;24403;-83
2024/02/10 06:25:51;;;;;;;2.25;1.80;;;;;;;;;;6270100;28;24404;-82
2024/02/10 06:28:54;;;;;;;2.58;1.80;;;;;;;;;;6269989;28;24872;-82
2024/02/10 06:31:57;;;;;;;3.30;1.90;;;;;;;;;;6265982;28;24487;-81
2024/02/10 06:34:58;;;;;;;4.68;1.95;;;;;;;;;;6267967;28;24453;-82
2024/02/10 06:38:00;;;;;;;3.55;1.92;;;;;;;;;;6266777;28;24818;-85
2024/02/10 06:41:03;;;;;;;3.53;2.10;;;;;;;;;;6271176;28;24418;-81
2024/02/10 06:44:07;;;;;;;2.43;1.80;;;;;;;;;;6265567;28;24826;-83
2024/02/10 06:47:08;;;;;;;3.15;2.00;;;;;;;;;;6265973;28;24814;-80
2024/02/10 06:50:13;;;;;;;3.80;1.80;;;;;;;;;;6267633;28;24825;-82
2024/02/10 06:53:15;;;;;;;3.22;2.08;;;;;;;;;;6268349;28;24442;-78
2024/02/10 06:56:17;;;;;;;2.95;1.85;;;;;;;;;;6266673;28;24554;-80
2024/02/10 06:59:23;;;;;;;2.67;1.90;;;;;;;;;;6266582;28;24420;-80
2024/02/10 07:02:25;;;;;;;4.68;2.10;;;;;;;;;;6271019;28;24424;-82
2024/02/10 07:05:26;;;;;;;3.47;2.20;;;;;;;;;;6266560;28;25155;-80
2024/02/10 07:08:29;;;;;;;2.80;2.13;;;;;;;;;;6266096;28;24424;-80
2024/02/10 07:11:32;;;;;;;3.65;2.47;;;;;;;;;;6268504;28;24523;-80
2024/02/10 07:14:34;;;;;;;2.97;2.33;;;;;;;;;;6265985;28;24423;-79
2024/02/10 07:17:35;;;;;;;3.85;2.50;;;;;;;;;;6265265;28;24426;-79
2024/02/10 07:20:37;;;;;;;3.97;2.70;;;;;;;;;;6264292;28;24419;-80
2024/02/10 07:23:39;;;;;;;6.10;3.70;;;;;;;;;;6265623;28;24434;-80
2024/02/10 07:26:43;;;;;;;4.82;3.13;;;;;;;;;;6266579;28;24643;-80
2024/02/10 07:29:45;;;;;;;4.37;2.50;;;;;;;;;;6264777;28;24435;-80
2024/02/10 07:32:48;;;;;;;3.50;2.50;;;;;;;;;;6268047;28;24419;-79
2024/02/10 07:35:50;;;;;;;4.38;2.22;;;;;;;;;;6261251;28;24485;-81
2024/02/10 07:38:52;;;;;;;5.22;3.20;;;;;;;;;;6269319;28;24545;-80
2024/02/10 07:41:56;;;;;;;4.20;2.67;;;;;;;;;;6268044;28;24458;-80
2024/02/10 07:44:59;;;;;;;4.00;2.40;;;;;;;;;;6266728;28;24454;-80
2024/02/10 07:48:02;;;;;;;3.92;2.25;;;;;;;;;;6265957;28;24507;-80
2024/02/10 07:51:03;;;;;;;4.13;2.30;;;;;;;;;;6262390;28;24488;-80
2024/02/10 07:54:05;;;;;;;4.32;2.25;;;;;;;;;;6262902;28;24481;-81
2024/02/10 07:57:15;;;;;;;5.50;2.30;;;;;;;;;;6262267;28;24878;-80
2024/02/10 08:00:19;;;;;;;6.13;2.67;;;;;;;;;;6266203;28;24613;-80
2024/02/10 08:03:20;;;;;;;6.88;2.80;;;;;;;;;;6263165;28;24422;-80
2024/02/10 08:06:26;;;;;;;3.75;2.55;;;;;;;;;;6265227;28;24436;-81
2024/02/10 08:09:28;;;;;;;6.03;2.90;;;;;;;;;;6265339;28;24469;-80
2024/02/10 08:12:33;;;;;;;5.97;2.53;;;;;;;;;;6262788;28;24439;-81
2024/02/10 08:15:34;;;;;;;6.85;3.13;;;;;;;;;;6261778;28;24469;-81
2024/02/10 08:18:37;;;;;;;5.88;3.50;;;;;;;;;;6265519;28;24588;-81
2024/02/10 08:21:39;;;;;;;6.22;2.80;;;;;;;;;;6263787;28;24412;-80
2024/02/10 08:24:40;;;;;;;6.18;2.90;;;;;;;;;;6264622;28;24850;-81
2024/02/10 08:27:43;;;;;;;5.47;3.17;;;;;;;;;;6268436;28;24428;-81
2024/02/10 08:30:45;;;;;;;5.65;2.75;;;;;;;;;;6268941;28;24831;-80
2024/02/10 08:33:47;;;;;;;5.93;3.35;;;;;;;;;;6268334;28;24435;-81
2024/02/10 08:36:52;;;;;;;7.47;4.68;;;;;;;;;;6269494;28;24639;-80
2024/02/10 08:39:55;;;;;;;9.23;3.22;;;;;;;;;;6269892;28;24498;-80
2024/02/10 08:42:59;;;;;;;5.72;3.08;;;;;;;;;;6270059;28;24790;-80
2024/02/10 08:46:00;;;;;;;8.00;3.13;;;;;;;;;;6265403;28;24481;-82
2024/02/10 08:49:02;;;;;;;7.07;3.25;;;;;;;;;;6267917;28;24474;-80
2024/02/10 08:52:04;;;;;;;7.10;3.47;;;;;;;;;;6269575;28;24427;-80
2024/02/10 08:55:06;;;;;;;8.32;3.83;;;;;;;;;;6269775;28;24423;-80
2024/02/10 08:58:09;;;;;;;6.47;3.60;;;;;;;;;;6271022;28;24873;-81
2024/02/10 09:01:15;;;;;;;7.07;3.78;;;;;;;;;;6270494;28;24655;-80
2024/02/10 09:04:17;;;;;;;9.55;4.28;;;;;;;;;;6269229;28;24423;-80
2024/02/10 09:07:18;;;;;;;7.47;4.80;;;;;;;;;;6267479;28;24454;-80
2024/02/10 09:10:20;;;;;;;10.27;5.67;;;;;;;;;;6268805;28;24459;-81
2024/02/10 09:13:23;;;;;;;16.13;10.13;;;;;;;;;;6270262;28;24632;-80
2024/02/10 09:16:26;;;;;;;8.60;5.10;;;;;;;;;;6269283;28;24419;-80
2024/02/10 09:19:27;;;;;;;10.10;5.05;;;;;;;;;;6265658;28;24462;-80
2024/02/10 09:22:29;;;;;;;10.88;5.82;;;;;;;;;;6270436;28;24434;-81
2024/02/10 09:25:36;;;;;;;9.27;5.22;;;;;;;;;;6271030;28;24631;-80
2024/02/10 09:28:39;;;;;;;13.20;7.18;;;;;;;;;;6268111;28;24427;-81
2024/02/10 09:31:43;;;;;;;10.83;5.73;;;;;;;;;;6270445;28;24403;-80
2024/02/10 09:34:46;;;;;;;8.00;5.68;;;;;;;;;;6269366;28;24507;-82
2024/02/10 09:37:48;;;;;;;8.85;5.60;;;;;;;;;;6269384;28;24414;-81
2024/02/10 09:40:56;;;;;;;10.85;6.10;;;;;;;;;;6269626;28;24410;-80
2024/02/10 09:43:59;;;;;;;11.13;6.22;;;;;;;;;;6269180;28;24497;-80
2024/02/10 09:47:02;;;;;;;12.07;6.15;;;;;;;;;;6268205;28;24640;-82
2024/02/10 09:50:05;;;;;;;10.40;6.20;;;;;;;;;;6265444;28;24427;-81
2024/02/10 09:53:06;;;;;;;9.67;6.50;;;;;;;;;;6267980;28;24672;-80
2024/02/10 09:56:10;;;;;;;12.20;6.60;;;;;;;;;;6264922;28;24415;-82
2024/02/10 09:59:15;;;;;;;11.77;6.40;;;;;;;;;;6265415;28;24419;-81
2024/02/10 10:02:16;;;;;;;11.43;6.80;;;;;;;;;;6267282;28;24534;-80
2024/02/10 10:05:18;;;;;;;11.52;6.50;;;;;;;;;;6268496;28;24430;-80
2024/02/10 10:08:22;;;;;;;11.50;6.70;;;;;;;;;;6265171;28;24624;-80
2024/02/10 10:11:23;;;;;;;11.40;6.57;;;;;;;;;;6268530;28;24806;-80
2024/02/10 10:14:26;;;;;;;12.93;6.90;;;;;;;;;;6265145;28;24431;-80
2024/02/10 10:17:35;;;;;;;15.27;6.65;;;;;;;;;;6267154;28;24418;-80
2024/02/10 10:20:37;;;;;;;12.07;6.27;;;;;;;;;;6268833;28;24559;-80
2024/02/10 10:23:38;;;;;;;12.65;6.55;;;;;;;;;;6266436;28;24612;-80
2024/02/10 10:26:41;;;;;;;11.70;6.28;;;;;;;;;;6268677;28;24845;-84
2024/02/10 10:29:44;;;;;;;10.85;6.40;;;;;;;;;;6269442;28;24424;-80
2024/02/10 10:32:51;;;;;;;12.20;6.40;;;;;;;;;;6266512;28;24422;-81
2024/02/10 10:35:54;;;;;;;12.70;6.82;;;;;;;;;;6269154;28;24442;-83
2024/02/10 10:38:57;;;;;;;12.85;6.68;;;;;;;;;;6267933;28;24424;-82
2024/02/10 10:41:59;;;;;;;13.85;6.53;;;;;;;;;;6267276;28;24414;-81
2024/02/10 10:45:03;;;;;;;15.48;6.40;;;;;;;;;;6268782;28;24655;-81
2024/02/10 10:48:05;;;;;;;11.02;5.75;;;;;;;;;;6265306;28;24430;-81
2024/02/10 10:51:10;;;;;;;10.18;6.00;;;;;;;;;;6264792;28;24422;-81
2024/02/10 10:54:12;;;;;;;13.63;6.00;;;;;;;;;;6270358;28;24427;-81
2024/02/10 10:57:16;;;;;;;10.90;5.43;;;;;;;;;;6268068;28;24420;-82
2024/02/10 11:00:24;;;;;;;9.25;5.25;;;;;;;;;;6264401;28;24727;-82
2024/02/10 11:03:26;;;;;;;11.52;5.45;;;;;;;;;;6267060;28;24503;-81
2024/02/10 11:06:28;;;;;;;10.38;5.30;;;;;;;;;;6265565;28;24833;-82
2024/02/10 11:09:30;;;;;;;13.07;5.13;;;;;;;;;;6266238;28;24423;-83
2024/02/10 11:12:32;;;;;;;11.68;5.22;;;;;;;;;;6265413;28;24407;-81
2024/02/10 11:15:40;;;;;;;8.98;5.13;;;;;;;;;;6265523;28;24419;-82
2024/02/10 11:18:43;;;;;;;11.35;5.53;;;;;;;;;;6267270;28;24519;-81
2024/02/10 11:21:46;;;;;;;10.98;5.55;;;;;;;;;;6263796;28;24499;-80
2024/02/10 11:24:48;;;;;;;9.73;5.70;;;;;;;;;;6265889;28;24502;-82
2024/02/10 11:27:50;;;;;;;10.48;5.72;;;;;;;;;;6266906;28;24501;-81
2024/02/10 11:30:53;;;;;;;11.63;5.68;;;;;;;;;;6264589;28;24415;-81
2024/02/10 11:33:54;;;;;;;11.70;6.10;;;;;;;;;;6267428;28;24474;-83
2024/02/10 11:36:56;;;;;;;11.05;5.78;;;;;;;;;;6261195;28;24616;-82
2024/02/10 11:39:57;;;;;;;10.13;5.60;;;;;;;;;;6263578;28;24691;-83
2024/02/10 11:42:59;;;;;;;9.73;5.63;;;;;;;;;;6264186;28;24412;-81
2024/02/10 11:46:02;;;;;;;11.02;6.32;;;;;;;;;;6263722;28;24432;-82
2024/02/10 11:49:03;;;;;;;9.53;6.03;;;;;;;;;;6262536;28;24496;-82
2024/02/10 11:52:07;;;;;;;9.07;5.63;;;;;;;;;;6262982;28;24419;-82
2024/02/10 11:55:10;;;;;;;9.80;6.13;;;;;;;;;;6265179;28;24510;-81
2024/02/10 11:58:11;;;;;;;10.98;5.90;;;;;;;;;;6262688;28;24431;-81
2024/02/10 12:01:14;;;;;;;12.43;7.65;;;;;;;;;;6269420;28;24435;-80
2024/02/10 12:04:17;;;;;;;13.13;6.85;;;;;;;;;;6272044;28;24424;-80
2024/02/10 12:07:19;;;;;;;9.77;6.00;;;;;;;;;;6267953;28;24447;-80
2024/02/10 12:10:21;;;;;;;9.95;6.13;;;;;;;;;;6270691;28;24845;-82
2024/02/10 12:13:23;;;;;;;11.48;6.07;;;;;;;;;;6269429;28;24840;-80
2024/02/10 12:16:29;;;;;;;9.57;6.50;;;;;;;;;;6271588;28;24434;-80
2024/02/10 12:19:36;;;;;;;10.82;6.90;;;;;;;;;;6270606;28;24439;-81
2024/02/10 12:22:37;;;;;;;12.70;9.32;;;;;;;;;;6269599;28;24487;-81
2024/02/10 12:25:39;;;;;;;11.80;7.93;;;;;;;;;;6269887;28;24415;-81
2024/02/10 12:28:40;;;;;;;12.25;7.15;;;;;;;;;;6268912;28;24407;-81
2024/02/10 12:31:44;;;;;;;10.98;7.13;;;;;;;;;;6271880;28;24410;-81
2024/02/10 12:34:45;;;;;;;10.40;6.83;;;;;;;;;;6268046;28;24917;-81
2024/02/10 12:37:47;;;;;;;9.65;6.82;;;;;;;;;;6268987;28;24882;-80
2024/02/10 12:40:48;;;;;;;11.10;7.00;;;;;;;;;;6271694;28;24487;-81
2024/02/10 12:43:53;;;;;;;10.60;7.03;;;;;;;;;;6269930;28;24410;-82
2024/02/10 12:46:56;;;;;;;10.27;7.00;;;;;;;;;;6270071;28;24496;-82
2024/02/10 12:49:58;;;;;;;8.70;6.60;;;;;;;;;;6267875;28;24430;-84
2024/02/10 12:53:00;;;;;;;10.32;6.72;;;;;;;;;;6269242;28;24430;-81
2024/02/10 12:56:03;;;;;;;8.90;6.30;;;;;;;;;;6271469;28;24424;-81
2024/02/10 12:59:07;;;;;;;10.85;6.10;;;;;;;;;;6268759;28;24407;-81
2024/02/10 13:02:10;;;;;;;9.65;5.78;;;;;;;;;;6270881;28;24423;-83
2024/02/10 13:05:12;;;;;;;8.45;5.05;;;;;;;;;;6266367;28;24426;-80
2024/02/10 13:08:15;;;;;;;7.47;4.50;;;;;;;;;;6270753;28;24421;-82
2024/02/10 13:11:17;;;;;;;6.95;4.40;;;;;;;;;;6269084;28;25002;-83
2024/02/10 13:14:19;;;;;;;5.70;4.35;;;;;;;;;;6267709;28;24818;-82
2024/02/10 13:17:21;;;;;;;7.60;4.68;;;;;;;;;;6267721;28;24479;-86
2024/02/10 13:20:24;;;;;;;7.10;3.85;;;;;;;;;;6263452;28;24435;-85
2024/02/10 13:23:25;;;;;;;6.60;4.18;;;;;;;;;;6266845;28;24422;-83
2024/02/10 13:26:27;;;;;;;6.72;4.38;;;;;;;;;;6269222;28;24994;-84
2024/02/10 13:29:29;;;;;;;6.87;4.30;;;;;;;;;;6270943;28;24825;-84
2024/02/10 13:32:32;;;;;;;6.50;4.43;;;;;;;;;;6269560;28;24486;-83
2024/02/10 13:35:36;;;;;;;8.18;4.50;;;;;;;;;;6263900;28;24435;-82
2024/02/10 14:02:06;;;;;;;7.67;5.47;;;;;;;;;;6268619;28;24489;-82
2024/02/10 14:05:00;;;;;;;8.75;5.63;;;;;;;;;;6267165;28;24407;-82
2024/02/10 14:11:22;;;;;;;8.50;5.80;;;;;;;;;;6268694;28;24818;-80
2024/02/10 14:14:24;;;;;;;9.50;5.90;;;;;;;;;;6266690;28;24431;-82
2024/02/10 14:17:27;;;;;;;7.28;5.07;;;;;;;;;;6267065;28;24407;-85
2024/02/10 14:20:33;;;;;;;7.35;6.05;;;;;;;;;;6266113;28;24427;-83
2024/02/10 14:23:35;;;;;;;8.63;5.93;;;;;;;;;;6267427;28;24425;-83
2024/02/10 14:26:39;;;;;;;9.88;5.95;;;;;;;;;;6270431;28;24815;-83
2024/02/10 14:29:43;;;;;;;7.82;5.90;;;;;;;;;;6268076;28;24454;-83
2024/02/10 14:32:51;;;;;;;8.43;5.77;;;;;;;;;;6264885;28;24655;-84
2024/02/10 14:36:01;;;;;;;7.97;5.70;;;;;;;;;;6266535;28;24440;-84
2024/02/10 14:39:08;;;;;;;9.10;5.93;;;;;;;;;;6268735;28;24423;-84
2024/02/10 14:42:10;;;;;;;8.98;6.28;;;;;;;;;;6266999;28;24869;-84
2024/02/10 14:45:18;;;;;;;8.38;6.03;;;;;;;;;;6266727;28;24499;-83
2024/02/10 14:48:22;;;;;;;8.55;5.85;;;;;;;;;;6268322;28;24423;-83
2024/02/10 14:51:25;;;;;;;8.13;5.90;;;;;;;;;;6263663;28;24435;-82
2024/02/10 14:54:26;;;;;;;8.38;5.88;;;;;;;;;;6267646;28;24688;-82
2024/02/10 14:57:31;;;;;;;10.38;6.55;;;;;;;;;;6268758;28;24412;-83
2024/02/10 15:00:33;;;;;;;7.97;5.70;;;;;;;;;;6266577;28;24651;-83
2024/02/10 15:03:36;;;;;;;8.13;6.03;;;;;;;;;;6266134;28;24539;-84
2024/02/10 15:06:40;;;;;;;8.80;6.45;;;;;;;;;;6266414;28;24826;-82
2024/02/10 15:09:42;;;;;;;9.27;6.22;;;;;;;;;;6268821;28;24462;-84
2024/02/10 15:12:43;;;;;;;9.15;6.22;;;;;;;;;;6265135;28;24615;-84
2024/02/10 15:15:45;;;;;;;8.63;6.30;;;;;;;;;;6269697;28;24418;-82
2024/02/10 15:18:50;;;;;;;8.53;6.00;;;;;;;;;;6265395;28;24511;-83
2024/02/10 15:21:58;;;;;;;9.77;6.35;;;;;;;;;;6268048;28;24441;-82
2024/02/10 15:25:01;;;;;;;11.68;6.45;;;;;;;;;;6264188;28;24835;-84
2024/02/10 15:28:03;;;;;;;10.95;6.25;;;;;;;;;;6263869;28;24439;-81
2024/02/10 15:31:05;;;;;;;9.10;6.40;;;;;;;;;;6263526;28;24454;-82
2024/02/10 15:34:07;;;;;;;10.88;5.90;;;;;;;;;;6266661;28;24430;-81
2024/02/10 15:37:10;;;;;;;8.47;6.13;;;;;;;;;;6265592;28;24498;-82
2024/02/10 15:40:20;;;;;;;9.40;6.00;;;;;;;;;;6265001;28;24431;-83
2024/02/10 15:43:25;;;;;;;10.40;5.95;;;;;;;;;;6267804;28;24794;-81
2024/02/10 15:46:27;;;;;;;10.18;5.70;;;;;;;;;;6266673;28;24438;-85
2024/02/10 15:49:29;;;;;;;8.57;5.65;;;;;;;;;;6266523;28;24443;-83
2024/02/10 15:52:34;;;;;;;9.70;5.50;;;;;;;;;;6263998;28;24463;-85
2024/02/10 15:55:36;;;;;;;9.35;5.95;;;;;;;;;;6267087;28;24418;-84
2024/02/10 15:58:42;;;;;;;10.10;5.68;;;;;;;;;;6265161;28;24460;-83
2024/02/10 16:01:44;;;;;;;9.73;5.10;;;;;;;;;;6268407;28;24474;-82
2024/02/10 16:04:46;;;;;;;7.32;5.00;;;;;;;;;;6263363;28;24458;-81
2024/02/10 16:07:51;;;;;;;7.80;4.90;;;;;;;;;;6267319;28;24507;-82
2024/02/10 16:10:54;;;;;;;45.67;28.30;;;;;;;;;;6269551;28;24790;-83
2024/02/10 16:13:56;;;;;;;56.93;31.53;;;;;;;;;;6264580;28;24426;-82
2024/02/10 16:16:57;;;;;;;83.25;48.35;;;;;;;;;;6268281;28;24597;-83
2024/02/10 16:19:59;;;;;;;77.23;40.37;;;;;;;;;;6263205;28;24426;-83
2024/02/10 16:23:02;;;;;;;112.25;56.67;;;;;;;;;;6265803;28;24711;-83
2024/02/10 16:26:03;;;;;;;33.88;17.30;;;;;;;;;;6263821;28;24494;-82
2024/02/10 16:29:07;;;;;;;11.70;7.20;;;;;;;;;;6264686;28;24419;-84
2024/02/10 16:32:10;;;;;;;8.52;5.53;;;;;;;;;;6261716;28;24447;-81
2024/02/10 16:35:13;;;;;;;8.52;5.63;;;;;;;;;;6265154;28;24815;-82
2024/02/10 16:38:16;;;;;;;8.20;5.22;;;;;;;;;;6265706;28;24431;-83
2024/02/10 16:41:19;;;;;;;6.78;5.00;;;;;;;;;;6264017;28;24430;-82
2024/02/10 16:44:21;;;;;;;8.23;5.50;;;;;;;;;;6264687;28;24427;-83
2024/02/10 16:47:23;;;;;;;8.27;5.35;;;;;;;;;;6264208;28;24412;-83
2024/02/10 16:50:27;;;;;;;7.10;5.10;;;;;;;;;;6268979;28;24473;-83
2024/02/10 16:53:30;;;;;;;7.13;5.25;;;;;;;;;;6267872;28;25131;-82
2024/02/10 16:56:35;;;;;;;6.60;4.77;;;;;;;;;;6265397;28;24526;-81
2024/02/10 16:59:36;;;;;;;6.68;4.63;;;;;;;;;;6269239;28;24841;-82
2024/02/10 17:02:37;;;;;;;7.18;5.43;;;;;;;;;;6268274;28;24427;-83
2024/02/10 17:05:40;;;;;;;6.57;4.90;;;;;;;;;;6270674;28;24504;-83
2024/02/10 17:08:44;;;;;;;7.10;4.80;;;;;;;;;;6270269;28;24419;-81
2024/02/10 17:11:46;;;;;;;7.75;4.95;;;;;;;;;;6267610;28;24462;-82
2024/02/10 17:14:47;;;;;;;5.82;4.70;;;;;;;;;;6272845;28;24462;-81
2024/02/10 17:17:49;;;;;;;6.55;5.30;;;;;;;;;;6267859;28;24419;-82
2024/02/10 17:20:55;;;;;;;7.18;5.03;;;;;;;;;;6267269;28;24420;-81
2024/02/10 17:23:58;;;;;;;22.98;6.47;;;;;;;;;;6269507;28;24450;-82
2024/02/10 17:26:59;;;;;;;15.85;6.10;;;;;;;;;;6268048;28;24435;-82
2024/02/10 17:30:01;;;;;;;11.40;5.18;;;;;;;;;;6269274;28;24442;-83
2024/02/10 17:33:03;;;;;;;8.48;5.20;;;;;;;;;;6267969;28;24518;-80
2024/02/10 17:36:05;;;;;;;6.83;5.13;;;;;;;;;;6269837;28;24833;-81
2024/02/10 17:39:10;;;;;;;6.50;5.18;;;;;;;;;;6267387;28;24876;-83
2024/02/10 17:42:11;;;;;;;6.65;5.03;;;;;;;;;;6265950;28;24435;-83
2024/02/10 17:45:13;;;;;;;6.93;5.28;;;;;;;;;;6268260;28;24634;-82
2024/02/10 17:48:19;;;;;;;7.80;5.38;;;;;;;;;;6268506;28;24519;-81
2024/02/10 17:51:21;;;;;;;7.07;5.18;;;;;;;;;;6269459;28;24428;-82
2024/02/10 17:54:28;;;;;;;6.50;5.25;;;;;;;;;;6267106;28;24442;-83
2024/02/10 17:57:30;;;;;;;6.95;4.97;;;;;;;;;;6266486;28;24586;-82
2024/02/10 18:00:31;;;;;;;6.38;5.10;;;;;;;;;;6267787;28;24431;-82
2024/02/10 18:03:34;;;;;;;7.10;5.32;;;;;;;;;;6264060;28;24419;-81
2024/02/10 18:06:36;;;;;;;8.02;5.50;;;;;;;;;;6266036;28;24435;-82
2024/02/10 18:09:39;;;;;;;7.97;5.80;;;;;;;;;;6267525;28;24420;-81
2024/02/10 18:12:41;;;;;;;6.63;5.28;;;;;;;;;;6266388;28;24435;-81
2024/02/10 18:15:42;;;;;;;7.27;5.50;;;;;;;;;;6264529;28;24431;-81
2024/02/10 18:18:47;;;;;;;7.50;5.63;;;;;;;;;;6266713;28;24464;-80
2024/02/10 18:21:52;;;;;;;7.15;5.20;;;;;;;;;;6265646;28;24428;-81
2024/02/10 18:24:57;;;;;;;7.30;5.13;;;;;;;;;;6267238;28;24545;-83
2024/02/10 18:28:02;;;;;;;6.85;5.20;;;;;;;;;;6266497;28;24434;-82
2024/02/10 18:31:04;;;;;;;6.68;5.18;;;;;;;;;;6267211;28;24534;-80
2024/02/10 18:34:10;;;;;;;6.85;5.32;;;;;;;;;;6270148;28;24627;-81
2024/02/10 18:37:13;;;;;;;7.72;5.20;;;;;;;;;;6266565;28;24430;-80